createdAt,value
2022-12-06T00:08:19.194Z,100.00
2022-12-06T00:18:20.942Z,100.00
2022-12-06T00:28:22.516Z,100.00
2022-12-06T00:38:24.673Z,100.00
2022-12-06T00:48:34.934Z,100.00
2022-12-06T00:58:36.919Z,100.00
2022-12-06T01:08:41.635Z,100.00
2022-12-06T01:18:46.087Z,100.00
2022-12-06T01:28:55.375Z,100.00
2022-12-06T01:38:58.515Z,100.00
2022-12-06T01:49:05.663Z,100.00
2022-12-06T01:59:08.470Z,100.00
2022-12-06T02:09:11.802Z,100.00
2022-12-06T02:19:50.913Z,100.00
2022-12-06T02:29:56.297Z,100.00
2022-12-06T02:40:11.018Z,100.00
2022-12-06T02:50:34.261Z,100.00
2022-12-06T03:00:50.751Z,100.00
2022-12-06T03:10:58.563Z,100.00
2022-12-06T03:21:06.978Z,100.00
2022-12-06T03:31:22.963Z,100.00
2022-12-06T03:41:29.962Z,100.00
2022-12-06T03:51:34.879Z,100.00
2022-12-06T04:01:39.931Z,100.00
2022-12-06T04:11:41.896Z,100.00
2022-12-06T04:22:02.060Z,100.00
2022-12-06T04:32:30.143Z,100.00
2022-12-06T04:42:55.400Z,100.00
2022-12-06T04:53:03.059Z,100.00
2022-12-06T05:03:05.705Z,100.00
2022-12-06T05:13:11.049Z,100.00
2022-12-06T05:23:14.443Z,100.00
2022-12-06T05:33:16.146Z,100.00
2022-12-06T05:43:31.150Z,100.00
2022-12-06T05:53:32.825Z,100.00
2022-12-06T06:03:36.104Z,100.00
2022-12-06T06:13:40.923Z,100.00
2022-12-06T06:23:43.887Z,100.00
2022-12-06T06:33:47.984Z,100.00
2022-12-06T06:43:49.642Z,100.00
2022-12-06T06:53:53.378Z,100.00
2022-12-06T07:03:58.793Z,100.00
2022-12-06T07:14:03.097Z,100.00
2022-12-06T07:24:04.969Z,100.00
2022-12-06T07:34:07.710Z,100.00
2022-12-06T07:44:29.987Z,100.00
2022-12-06T07:54:31.789Z,100.00
2022-12-06T08:04:36.553Z,100.00
2022-12-06T08:14:38.233Z,100.00
2022-12-06T08:24:41.803Z,100.00
2022-12-06T08:34:44.676Z,100.00
2022-12-06T08:44:46.536Z,100.00
2022-12-06T08:54:48.310Z,100.00
2022-12-06T09:04:57.531Z,100.00
2022-12-06T09:14:59.248Z,100.00
2022-12-06T09:25:00.915Z,100.00
2022-12-06T09:35:02.590Z,75.76
2022-12-06T09:45:36.990Z,80.36
2022-12-06T09:55:53.830Z,100.00
2022-12-06T10:06:04.665Z,100.00
2022-12-06T10:16:10.317Z,100.00
2022-12-06T10:26:24.888Z,92.02
2022-12-06T10:37:02.133Z,69.47
2022-12-06T10:47:12.359Z,49.62
2022-12-06T10:58:11.457Z,42.42
2022-12-06T11:08:19.150Z,40.55
2022-12-06T11:18:21.159Z,54.77
2022-12-06T11:28:46.714Z,67.84
2022-12-06T11:38:49.875Z,84.88
2022-12-06T11:48:53.307Z,100.00
2022-12-06T11:59:05.151Z,100.00
2022-12-06T12:09:18.788Z,97.27
2022-12-06T12:19:41.309Z,100.00
2022-12-06T12:29:44.014Z,100.00
2022-12-06T12:39:53.532Z,100.00
2022-12-06T12:50:04.451Z,99.92
2022-12-06T13:00:16.737Z,100.00
2022-12-06T13:10:23.955Z,75.46
2022-12-06T13:20:29.875Z,71.20
2022-12-06T13:30:36.039Z,99.96
2022-12-06T13:40:46.530Z,100.00
2022-12-06T13:50:51.562Z,100.00
2022-12-06T14:00:57.142Z,100.00
2022-12-06T14:11:17.503Z,100.00
2022-12-06T14:21:37.224Z,100.00
2022-12-06T14:31:39.981Z,100.00
2022-12-06T14:42:14.124Z,100.00
2022-12-06T14:52:18.556Z,100.00
2022-12-06T15:02:26.952Z,100.00
2022-12-06T15:12:55.351Z,100.00
2022-12-06T15:23:01.413Z,100.00
2022-12-06T15:33:05.479Z,100.00
2022-12-06T15:43:22.642Z,100.00
2022-12-06T15:53:26.059Z,100.00
2022-12-06T16:03:27.823Z,100.00
2022-12-06T16:13:32.405Z,100.00
2022-12-06T16:34:25.638Z,100.00
2022-12-06T16:44:28.242Z,100.00
2022-12-06T16:54:33.547Z,100.00
2022-12-06T17:04:35.456Z,100.00
2022-12-06T17:14:39.537Z,100.00
2022-12-06T17:24:43.419Z,100.00
2022-12-06T17:34:47.466Z,100.00
2022-12-06T17:44:53.863Z,100.00
2022-12-06T17:54:56.298Z,100.00
2022-12-06T18:05:01.856Z,100.00
2022-12-06T18:15:28.165Z,100.00
2022-12-06T18:25:41.206Z,100.00
2022-12-06T18:35:43.799Z,100.00
2022-12-06T18:45:46.519Z,100.00
2022-12-06T18:55:51.134Z,100.00
2022-12-06T19:06:02.771Z,100.00
2022-12-06T19:16:07.612Z,100.00
2022-12-06T19:26:12.385Z,100.00
2022-12-06T19:36:19.535Z,100.00
2022-12-06T19:46:29.828Z,100.00
2022-12-06T19:56:34.770Z,100.00
2022-12-06T20:06:41.240Z,100.00
2022-12-06T20:16:54.937Z,100.00
2022-12-06T20:26:58.847Z,100.00
2022-12-06T20:37:04.174Z,100.00
2022-12-06T20:47:08.349Z,100.00
2022-12-06T20:57:14.109Z,100.00
2022-12-06T21:07:17.192Z,100.00
2022-12-06T21:17:19.237Z,100.00
2022-12-06T21:27:22.611Z,100.00
2022-12-06T21:37:26.190Z,100.00
2022-12-06T21:47:27.979Z,100.00
2022-12-06T21:57:34.257Z,100.00
2022-12-06T22:07:37.392Z,100.00
2022-12-06T22:17:49.739Z,100.00
2022-12-06T22:27:54.411Z,100.00
2022-12-06T22:37:56.084Z,100.00
2022-12-06T22:47:57.904Z,100.00
2022-12-06T22:58:00.786Z,100.00
2022-12-06T23:08:08.658Z,100.00
2022-12-06T23:18:18.736Z,100.00
2022-12-06T23:28:20.636Z,100.00
2022-12-06T23:38:22.452Z,100.00
2022-12-06T23:48:24.122Z,100.00
2022-12-06T23:58:26.980Z,100.00
